^^
Station Historical Data
Daily Summary for November 10, 2017 Units:  Both    English   Metric
« Previous Day
Next Day »
Daily Weekly Monthly Yearly Custom
  High: Low: Average:
Temperature: TemperatureF °F /  -17.8 °C 60.4 °F /  15.8 °C 71 °F /  21.7 °C
Dew Point: DewpointF °F /  -17.8 °C 34.9 °F /  1.6 °C 39.7 °F /  4.3 °C
Humidity: Humidity% 16% 34%
Wind Speed: WindSpeedMPHmph /  0km/h - 1.9mph /  3.1km/h
Wind Gust: WindSpeedGustMPHmph /  0km/h - -
Wind- - SSW
Pressure: PressureIn in /  0 hPa 29.61 in /  1002.6 hPa -
Precipitation: 0.00 in /  0 mm    
Historical Graphs
 
 
Tabular Data for November 10, 2017
Time Temperature Dew Point Pressure Wind Wind Speed Wind Gust Humidity Rainfall Rate (Hourly) solar Conditions
TemperatureF °F /  -17.8 °C DewpointF °F /  -17.8 °C PressureInin /  0hPa Calm     Humidity% HourlyPrecipInin /  0mm SolarRadiationWatts/m^2 W/m2 Conditions
00:00 67.3 °F /  19.6 °C 38.7 °F /  3.7 °C 29.68in /  1005hPa Calm     35% 0.00in /  0mm 0.0 W/m2
00:01 67.3 °F /  19.6 °C 38.7 °F /  3.7 °C 29.68in /  1005hPa Calm     35% 0.00in /  0mm 0.0 W/m2
00:06 66.9 °F /  19.4 °C 38.3 °F /  3.5 °C 29.67in /  1004.6hPa Calm     35% 0.00in /  0mm 0.0 W/m2
00:11 66.7 °F /  19.3 °C 38.3 °F /  3.5 °C 29.67in /  1004.6hPa Calm     35% 0.00in /  0mm 0.0 W/m2
00:16 66.6 °F /  19.2 °C 38.1 °F /  3.4 °C 29.67in /  1004.6hPa Calm     35% 0.00in /  0mm 0.0 W/m2
00:21 66.4 °F /  19.1 °C 38.7 °F /  3.7 °C 29.67in /  1004.6hPa Calm     36% 0.00in /  0mm 0.0 W/m2
00:30 66.4 °F /  19.1 °C 38.7 °F /  3.7 °C 29.66in /  1004.3hPa Calm   1.0mph /  1.6km/h 36% 0.00in /  0mm 0.0 W/m2
00:36 66.2 °F /  19 °C 39.2 °F /  4 °C 29.66in /  1004.3hPa Calm   1.0mph /  1.6km/h 37% 0.00in /  0mm 0.0 W/m2
00:41 66.0 °F /  18.9 °C 39.0 °F /  3.9 °C 29.66in /  1004.3hPa Calm   4.0mph /  6.4km/h 37% 0.00in /  0mm 0.0 W/m2
00:46 66.0 °F /  18.9 °C 39.7 °F /  4.3 °C 29.66in /  1004.3hPa SSE 0.9mph /  1.4km/h 4.0mph /  6.4km/h 38% 0.00in /  0mm 0.0 W/m2
00:51 66.0 °F /  18.9 °C 39.0 °F /  3.9 °C 29.65in /  1003.9hPa Calm   2.0mph /  3.2km/h 37% 0.00in /  0mm 0.0 W/m2
00:56 66.0 °F /  18.9 °C 38.3 °F /  3.5 °C 29.65in /  1003.9hPa Calm   1.0mph /  1.6km/h 36% 0.00in /  0mm 0.0 W/m2
01:01 66.0 °F /  18.9 °C 39.0 °F /  3.9 °C 29.65in /  1003.9hPa Calm   1.0mph /  1.6km/h 37% 0.00in /  0mm 0.0 W/m2
01:06 66.0 °F /  18.9 °C 39.0 °F /  3.9 °C 29.65in /  1003.9hPa East 0.9mph /  1.4km/h 1.0mph /  1.6km/h 37% 0.00in /  0mm 0.0 W/m2
01:12 66.0 °F /  18.9 °C 39.7 °F /  4.3 °C 29.65in /  1003.9hPa Calm   2.0mph /  3.2km/h 38% 0.00in /  0mm 0.0 W/m2
01:17 65.8 °F /  18.8 °C 38.8 °F /  3.8 °C 29.65in /  1003.9hPa Calm   1.0mph /  1.6km/h 37% 0.00in /  0mm 0.0 W/m2
01:22 65.8 °F /  18.8 °C 38.8 °F /  3.8 °C 29.65in /  1003.9hPa Calm     37% 0.00in /  0mm 0.0 W/m2
01:27 65.7 °F /  18.7 °C 38.7 °F /  3.7 °C 29.65in /  1003.9hPa Calm   2.0mph /  3.2km/h 37% 0.00in /  0mm 0.0 W/m2
01:32 65.5 °F /  18.6 °C 39.2 °F /  4 °C 29.65in /  1003.9hPa Calm   3.0mph /  4.8km/h 38% 0.00in /  0mm 0.0 W/m2
01:37 65.3 °F /  18.5 °C 39.0 °F /  3.9 °C 29.65in /  1003.9hPa Calm   1.0mph /  1.6km/h 38% 0.00in /  0mm 0.0 W/m2
01:42 65.3 °F /  18.5 °C 39.0 °F /  3.9 °C 29.65in /  1003.9hPa Calm   1.0mph /  1.6km/h 38% 0.00in /  0mm 0.0 W/m2
01:47 65.1 °F /  18.4 °C 37.6 °F /  3.1 °C 29.65in /  1003.9hPa Calm   3.0mph /  4.8km/h 36% 0.00in /  0mm 0.0 W/m2
01:53 65.3 °F /  18.5 °C 37.6 °F /  3.1 °C 29.65in /  1003.9hPa Calm     36% 0.00in /  0mm 0.0 W/m2
01:58 65.5 °F /  18.6 °C 37.8 °F /  3.2 °C 29.64in /  1003.6hPa Calm     36% 0.00in /  0mm 0.0 W/m2
02:03 65.7 °F /  18.7 °C 37.9 °F /  3.3 °C 29.64in /  1003.6hPa Calm     36% 0.00in /  0mm 0.0 W/m2
02:08 65.8 °F /  18.8 °C 38.8 °F /  3.8 °C 29.65in /  1003.9hPa East 2.9mph /  4.7km/h 4.0mph /  6.4km/h 37% 0.00in /  0mm 0.0 W/m2
02:13 65.7 °F /  18.7 °C 38.7 °F /  3.7 °C 29.65in /  1003.9hPa Calm   1.0mph /  1.6km/h 37% 0.00in /  0mm 0.0 W/m2
02:18 65.5 °F /  18.6 °C 39.2 °F /  4 °C 29.64in /  1003.6hPa East 0.9mph /  1.4km/h 3.0mph /  4.8km/h 38% 0.00in /  0mm 0.0 W/m2
02:23 65.3 °F /  18.5 °C 39.0 °F /  3.9 °C 29.64in /  1003.6hPa Calm   3.0mph /  4.8km/h 38% 0.00in /  0mm 0.0 W/m2
02:28 64.9 °F /  18.3 °C 38.7 °F /  3.7 °C 29.64in /  1003.6hPa East 2.9mph /  4.7km/h 6.0mph /  9.7km/h 38% 0.00in /  0mm 0.0 W/m2
02:34 64.8 °F /  18.2 °C 39.2 °F /  4 °C 29.65in /  1003.9hPa ENE 0.9mph /  1.4km/h 3.0mph /  4.8km/h 39% 0.00in /  0mm 0.0 W/m2
02:39 64.6 °F /  18.1 °C 39.7 °F /  4.3 °C 29.65in /  1003.9hPa ENE 0.9mph /  1.4km/h 3.0mph /  4.8km/h 40% 0.00in /  0mm 0.0 W/m2
02:44 64.2 °F /  17.9 °C 39.4 °F /  4.1 °C 29.64in /  1003.6hPa Calm   1.0mph /  1.6km/h 40% 0.00in /  0mm 0.0 W/m2
02:49 64.0 °F /  17.8 °C 39.2 °F /  4 °C 29.64in /  1003.6hPa Calm   1.0mph /  1.6km/h 40% 0.00in /  0mm 0.0 W/m2
02:54 63.9 °F /  17.7 °C 39.0 °F /  3.9 °C 29.64in /  1003.6hPa ESE 0.9mph /  1.4km/h 2.0mph /  3.2km/h 40% 0.00in /  0mm 0.0 W/m2
02:59 63.7 °F /  17.6 °C 38.8 °F /  3.8 °C 29.64in /  1003.6hPa Calm   2.0mph /  3.2km/h 40% 0.00in /  0mm 0.0 W/m2
03:04 63.5 °F /  17.5 °C 38.1 °F /  3.4 °C 29.64in /  1003.6hPa Calm   3.0mph /  4.8km/h 39% 0.00in /  0mm 0.0 W/m2
03:09 63.5 °F /  17.5 °C 38.7 °F /  3.7 °C 29.64in /  1003.6hPa Calm   1.0mph /  1.6km/h 40% 0.00in /  0mm 0.0 W/m2
03:15 63.3 °F /  17.4 °C 38.7 °F /  3.7 °C 29.63in /  1003.3hPa Calm     40% 0.00in /  0mm 0.0 W/m2
03:20 63.3 °F /  17.4 °C 38.7 °F /  3.7 °C 29.63in /  1003.3hPa Calm   3.0mph /  4.8km/h 40% 0.00in /  0mm 0.0 W/m2
03:25 63.1 °F /  17.3 °C 37.8 °F /  3.2 °C 29.63in /  1003.3hPa SSE 2.9mph /  4.7km/h 7.0mph /  11.3km/h 39% 0.00in /  0mm 0.0 W/m2
03:30 63.1 °F /  17.3 °C 37.0 °F /  2.8 °C 29.62in /  1002.9hPa Calm   2.0mph /  3.2km/h 38% 0.00in /  0mm 0.0 W/m2
03:35 63.3 °F /  17.4 °C 37.9 °F /  3.3 °C 29.62in /  1002.9hPa SSE 0.9mph /  1.4km/h 1.0mph /  1.6km/h 39% 0.00in /  0mm 0.0 W/m2
03:40 63.3 °F /  17.4 °C 37.2 °F /  2.9 °C 29.62in /  1002.9hPa SE 0.9mph /  1.4km/h 3.0mph /  4.8km/h 38% 0.00in /  0mm 0.0 W/m2
03:45 63.1 °F /  17.3 °C 37.0 °F /  2.8 °C 29.62in /  1002.9hPa Calm   1.0mph /  1.6km/h 38% 0.00in /  0mm 0.0 W/m2
03:50 63.1 °F /  17.3 °C 37.8 °F /  3.2 °C 29.63in /  1003.3hPa Calm     39% 0.00in /  0mm 0.0 W/m2
03:55 63.0 °F /  17.2 °C 37.6 °F /  3.1 °C 29.63in /  1003.3hPa Calm   1.0mph /  1.6km/h 39% 0.00in /  0mm 0.0 W/m2
04:01 62.8 °F /  17.1 °C 37.4 °F /  3 °C 29.63in /  1003.3hPa Calm   3.0mph /  4.8km/h 39% 0.00in /  0mm 0.0 W/m2
04:07 62.8 °F /  17.1 °C 37.4 °F /  3 °C 29.63in /  1003.3hPa West 0.9mph /  1.4km/h 2.0mph /  3.2km/h 39% 0.00in /  0mm 0.0 W/m2
04:12 63.1 °F /  17.3 °C 37.0 °F /  2.8 °C 29.63in /  1003.3hPa Calm   3.0mph /  4.8km/h 38% 0.00in /  0mm 0.0 W/m2
04:17 63.7 °F /  17.6 °C 37.6 °F /  3.1 °C 29.63in /  1003.3hPa SSW 4.0mph /  6.4km/h 4.0mph /  6.4km/h 38% 0.00in /  0mm 0.0 W/m2
04:22 64.0 °F /  17.8 °C 37.2 °F /  2.9 °C 29.63in /  1003.3hPa Calm   6.0mph /  9.7km/h 37% 0.00in /  0mm 0.0 W/m2
04:27 64.2 °F /  17.9 °C 36.7 °F /  2.6 °C 29.63in /  1003.3hPa South 4.0mph /  6.4km/h 4.0mph /  6.4km/h 36% 0.00in /  0mm 0.0 W/m2
04:32 64.8 °F /  18.2 °C 37.2 °F /  2.9 °C 29.63in /  1003.3hPa SE 2.9mph /  4.7km/h 6.0mph /  9.7km/h 36% 0.00in /  0mm 0.0 W/m2
04:37 64.8 °F /  18.2 °C 37.2 °F /  2.9 °C 29.63in /  1003.3hPa Calm   1.0mph /  1.6km/h 36% 0.00in /  0mm 0.0 W/m2
04:42 64.6 °F /  18.1 °C 37.0 °F /  2.8 °C 29.63in /  1003.3hPa Calm   3.0mph /  4.8km/h 36% 0.00in /  0mm 0.0 W/m2
04:48 64.2 °F /  17.9 °C 37.4 °F /  3 °C 29.63in /  1003.3hPa Calm   1.0mph /  1.6km/h 37% 0.00in /  0mm 0.0 W/m2
04:53 63.9 °F /  17.7 °C 37.0 °F /  2.8 °C 29.64in /  1003.6hPa SSE 0.9mph /  1.4km/h 3.0mph /  4.8km/h 37% 0.00in /  0mm 0.0 W/m2
04:54 63.9 °F /  17.7 °C 37.0 °F /  2.8 °C 29.64in /  1003.6hPa Calm   3.0mph /  4.8km/h 37% 0.00in /  0mm 0.0 W/m2
04:59 63.3 °F /  17.4 °C 36.0 °F /  2.2 °C 29.64in /  1003.6hPa Calm   1.0mph /  1.6km/h 36% 0.00in /  0mm 0.0 W/m2
05:04 63.1 °F /  17.3 °C 36.5 °F /  2.5 °C 29.64in /  1003.6hPa Calm     37% 0.00in /  0mm 0.0 W/m2
05:09 63.0 °F /  17.2 °C 35.6 °F /  2 °C 29.64in /  1003.6hPa ESE 0.9mph /  1.4km/h 3.0mph /  4.8km/h 36% 0.00in /  0mm 0.0 W/m2
05:14 63.0 °F /  17.2 °C 34.9 °F /  1.6 °C 29.65in /  1003.9hPa SE 0.9mph /  1.4km/h 2.0mph /  3.2km/h 35% 0.00in /  0mm 0.0 W/m2
05:19 63.0 °F /  17.2 °C 34.9 °F /  1.6 °C 29.65in /  1003.9hPa Calm   2.0mph /  3.2km/h 35% 0.00in /  0mm 0.0 W/m2
05:24 63.0 °F /  17.2 °C 34.9 °F /  1.6 °C 29.65in /  1003.9hPa Calm     35% 0.00in /  0mm 0.0 W/m2
05:29 63.0 °F /  17.2 °C 36.3 °F /  2.4 °C 29.65in /  1003.9hPa East 2.0mph /  3.2km/h 3.0mph /  4.8km/h 37% 0.00in /  0mm 0.0 W/m2
05:34 62.8 °F /  17.1 °C 37.4 °F /  3 °C 29.65in /  1003.9hPa ENE 2.0mph /  3.2km/h 3.0mph /  4.8km/h 39% 0.00in /  0mm 0.0 W/m2
05:40 62.6 °F /  17 °C 37.9 °F /  3.3 °C 29.65in /  1003.9hPa Calm   5.0mph /  8km/h 40% 0.00in /  0mm 0.0 W/m2
05:45 62.2 °F /  16.8 °C 38.3 °F /  3.5 °C 29.66in /  1004.3hPa Calm   2.0mph /  3.2km/h 41% 0.00in /  0mm 0.0 W/m2
05:50 62.1 °F /  16.7 °C 38.7 °F /  3.7 °C 29.66in /  1004.3hPa East 2.9mph /  4.7km/h 4.0mph /  6.4km/h 42% 0.00in /  0mm 0.0 W/m2
05:55 61.5 °F /  16.4 °C 38.8 °F /  3.8 °C 29.66in /  1004.3hPa Calm   6.0mph /  9.7km/h 43% 0.00in /  0mm 0.0 W/m2
06:00 61.3 °F /  16.3 °C 38.7 °F /  3.7 °C 29.66in /  1004.3hPa East 0.9mph /  1.4km/h 4.0mph /  6.4km/h 43% 0.00in /  0mm 0.0 W/m2
06:05 61.0 °F /  16.1 °C 38.3 °F /  3.5 °C 29.66in /  1004.3hPa ENE 0.9mph /  1.4km/h 5.0mph /  8km/h 43% 0.00in /  0mm 0.0 W/m2
06:10 60.8 °F /  16 °C 38.7 °F /  3.7 °C 29.66in /  1004.3hPa NE 4.9mph /  7.9km/h 6.0mph /  9.7km/h 44% 0.00in /  0mm 0.0 W/m2
06:15 60.6 °F /  15.9 °C 38.7 °F /  3.7 °C 29.67in /  1004.6hPa ESE 0.9mph /  1.4km/h 6.0mph /  9.7km/h 44% 0.00in /  0mm 5.0 W/m2
06:20 60.6 °F /  15.9 °C 39.2 °F /  4 °C 29.67in /  1004.6hPa ENE 0.9mph /  1.4km/h 1.0mph /  1.6km/h 45% 0.00in /  0mm 5.0 W/m2
06:25 60.4 °F /  15.8 °C 38.5 °F /  3.6 °C 29.68in /  1005hPa Calm   6.0mph /  9.7km/h 44% 0.00in /  0mm 7.0 W/m2
06:30 60.4 °F /  15.8 °C 39.0 °F /  3.9 °C 29.69in /  1005.3hPa Calm   3.0mph /  4.8km/h 45% 0.00in /  0mm 9.0 W/m2
06:36 60.4 °F /  15.8 °C 39.0 °F /  3.9 °C 29.70in /  1005.6hPa Calm   1.0mph /  1.6km/h 45% 0.00in /  0mm 11.0 W/m2
06:41 60.4 °F /  15.8 °C 39.0 °F /  3.9 °C 29.70in /  1005.6hPa Calm   3.0mph /  4.8km/h 45% 0.00in /  0mm 16.0 W/m2
06:46 60.4 °F /  15.8 °C 39.6 °F /  4.2 °C 29.70in /  1005.6hPa East 0.9mph /  1.4km/h 2.0mph /  3.2km/h 46% 0.00in /  0mm 25.0 W/m2
06:51 60.4 °F /  15.8 °C 39.6 °F /  4.2 °C 29.71in /  1006hPa Calm   4.0mph /  6.4km/h 46% 0.00in /  0mm 35.0 W/m2
06:56 60.6 °F /  15.9 °C 39.7 °F /  4.3 °C 29.71in /  1006hPa ESE 0.9mph /  1.4km/h 5.0mph /  8km/h 46% 0.00in /  0mm 49.0 W/m2
07:01 61.0 °F /  16.1 °C 40.1 °F /  4.5 °C 29.71in /  1006hPa East 2.9mph /  4.7km/h 5.0mph /  8km/h 46% 0.00in /  0mm 63.0 W/m2
07:06 61.3 °F /  16.3 °C 40.5 °F /  4.7 °C 29.71in /  1006hPa East 4.0mph /  6.4km/h 6.0mph /  9.7km/h 46% 0.00in /  0mm 76.0 W/m2
07:11 61.9 °F /  16.6 °C 40.3 °F /  4.6 °C 29.72in /  1006.3hPa Calm   4.0mph /  6.4km/h 45% 0.00in /  0mm 102.0 W/m2
07:16 62.6 °F /  17 °C 40.5 °F /  4.7 °C 29.72in /  1006.3hPa North 0.9mph /  1.4km/h 5.0mph /  8km/h 44% 0.00in /  0mm 134.0 W/m2
07:22 63.3 °F /  17.4 °C 40.5 °F /  4.7 °C 29.73in /  1006.7hPa NNE 4.0mph /  6.4km/h 6.0mph /  9.7km/h 43% 0.00in /  0mm 151.0 W/m2
07:27 64.0 °F /  17.8 °C 40.5 °F /  4.7 °C 29.75in /  1007.3hPa NW 0.9mph /  1.4km/h 5.0mph /  8km/h 42% 0.00in /  0mm 128.0 W/m2
07:32 64.6 °F /  18.1 °C 39.0 °F /  3.9 °C 29.75in /  1007.3hPa NNW 2.9mph /  4.7km/h 10.0mph /  16.1km/h 39% 0.00in /  0mm 123.0 W/m2
07:37 65.1 °F /  18.4 °C 39.6 °F /  4.2 °C 29.76in /  1007.7hPa North 0.9mph /  1.4km/h 5.0mph /  8km/h 39% 0.00in /  0mm 121.0 W/m2
07:42 65.5 °F /  18.6 °C 39.9 °F /  4.4 °C 29.77in /  1008hPa North 4.0mph /  6.4km/h 6.0mph /  9.7km/h 39% 0.00in /  0mm 134.0 W/m2
07:47 65.8 °F /  18.8 °C 38.8 °F /  3.8 °C 29.77in /  1008hPa WNW 2.9mph /  4.7km/h 7.0mph /  11.3km/h 37% 0.00in /  0mm 114.0 W/m2
07:52 66.4 °F /  19.1 °C 39.4 °F /  4.1 °C 29.77in /  1008hPa NNW 2.0mph /  3.2km/h 2.0mph /  3.2km/h 37% 0.00in /  0mm 121.0 W/m2
07:57 66.6 °F /  19.2 °C 39.6 °F /  4.2 °C 29.77in /  1008hPa NNW 4.0mph /  6.4km/h 6.0mph /  9.7km/h 37% 0.00in /  0mm 107.0 W/m2
08:03 66.6 °F /  19.2 °C 40.1 °F /  4.5 °C 29.78in /  1008.4hPa NNE 6.9mph /  11.1km/h 11.0mph /  17.7km/h 38% 0.00in /  0mm 95.0 W/m2
08:09 66.0 °F /  18.9 °C 40.3 °F /  4.6 °C 29.78in /  1008.4hPa NNW 6.0mph /  9.7km/h 9.0mph /  14.5km/h 39% 0.00in /  0mm 111.0 W/m2
08:14 65.5 °F /  18.6 °C 41.2 °F /  5.1 °C 29.78in /  1008.4hPa NNW 4.0mph /  6.4km/h 8.0mph /  12.9km/h 41% 0.00in /  0mm 127.0 W/m2
08:19 65.3 °F /  18.5 °C 41.5 °F /  5.3 °C 29.78in /  1008.4hPa NE 2.9mph /  4.7km/h 6.0mph /  9.7km/h 42% 0.00in /  0mm 146.0 W/m2
08:24 65.1 °F /  18.4 °C 42.1 °F /  5.6 °C 29.78in /  1008.4hPa NNW 2.0mph /  3.2km/h 6.0mph /  9.7km/h 43% 0.00in /  0mm 155.0 W/m2
08:29 65.1 °F /  18.4 °C 42.1 °F /  5.6 °C 29.78in /  1008.4hPa NNE 2.0mph /  3.2km/h 3.0mph /  4.8km/h 43% 0.00in /  0mm 149.0 W/m2
08:34 65.1 °F /  18.4 °C 42.1 °F /  5.6 °C 29.77in /  1008hPa NE 0.9mph /  1.4km/h 3.0mph /  4.8km/h 43% 0.00in /  0mm 130.0 W/m2
08:39 65.1 °F /  18.4 °C 42.1 °F /  5.6 °C 29.77in /  1008hPa North 0.9mph /  1.4km/h 2.0mph /  3.2km/h 43% 0.00in /  0mm 116.0 W/m2
08:44 65.1 °F /  18.4 °C 42.1 °F /  5.6 °C 29.77in /  1008hPa NNE 2.0mph /  3.2km/h 2.0mph /  3.2km/h 43% 0.00in /  0mm 116.0 W/m2
08:50 65.1 °F /  18.4 °C 42.1 °F /  5.6 °C 29.76in /  1007.7hPa Calm     43% 0.00in /  0mm 130.0 W/m2
08:55 65.5 °F /  18.6 °C 43.0 °F /  6.1 °C 29.76in /  1007.7hPa Calm   1.0mph /  1.6km/h 44% 0.00in /  0mm 156.0 W/m2
09:01 65.7 °F /  18.7 °C 42.6 °F /  5.9 °C 29.76in /  1007.7hPa Calm   1.0mph /  1.6km/h 43% 0.00in /  0mm 199.0 W/m2
09:06 65.8 °F /  18.8 °C 42.8 °F /  6 °C 29.76in /  1007.7hPa SE 0.9mph /  1.4km/h 3.0mph /  4.8km/h 43% 0.00in /  0mm 218.0 W/m2
09:11 66.2 °F /  19 °C 41.7 °F /  5.4 °C 29.75in /  1007.3hPa ESE 0.9mph /  1.4km/h 4.0mph /  6.4km/h 41% 0.00in /  0mm 211.0 W/m2
09:16 66.6 °F /  19.2 °C 41.5 °F /  5.3 °C 29.75in /  1007.3hPa ENE 0.9mph /  1.4km/h 4.0mph /  6.4km/h 40% 0.00in /  0mm 204.0 W/m2
09:21 66.7 °F /  19.3 °C 41.7 °F /  5.4 °C 29.75in /  1007.3hPa ENE 0.9mph /  1.4km/h 5.0mph /  8km/h 40% 0.00in /  0mm 195.0 W/m2
09:26 67.1 °F /  19.5 °C 41.4 °F /  5.2 °C 29.75in /  1007.3hPa East 0.9mph /  1.4km/h 4.0mph /  6.4km/h 39% 0.00in /  0mm 211.0 W/m2
09:31 67.5 °F /  19.7 °C 41.0 °F /  5 °C 29.75in /  1007.3hPa ESE 2.9mph /  4.7km/h 5.0mph /  8km/h 38% 0.00in /  0mm 237.0 W/m2
09:36 67.6 °F /  19.8 °C 39.7 °F /  4.3 °C 29.75in /  1007.3hPa ESE 2.9mph /  4.7km/h 5.0mph /  8km/h 36% 0.00in /  0mm 251.0 W/m2
09:42 68.0 °F /  20 °C 39.4 °F /  4.1 °C 29.75in /  1007.3hPa ESE 4.9mph /  7.9km/h 5.0mph /  8km/h 35% 0.00in /  0mm 295.0 W/m2
09:47 68.4 °F /  20.2 °C 39.6 °F /  4.2 °C 29.75in /  1007.3hPa ENE 0.9mph /  1.4km/h 4.0mph /  6.4km/h 35% 0.00in /  0mm 323.0 W/m2
09:52 68.7 °F /  20.4 °C 39.9 °F /  4.4 °C 29.75in /  1007.3hPa SE 2.0mph /  3.2km/h 2.0mph /  3.2km/h 35% 0.00in /  0mm 339.0 W/m2
09:57 69.3 °F /  20.7 °C 38.1 °F /  3.4 °C 29.75in /  1007.3hPa NE 2.0mph /  3.2km/h 3.0mph /  4.8km/h 32% 0.00in /  0mm 427.0 W/m2
10:02 70.0 °F /  21.1 °C 37.0 °F /  2.8 °C 29.75in /  1007.3hPa Calm     30% 0.00in /  0mm 457.0 W/m2
10:07 70.5 °F /  21.4 °C 40.1 °F /  4.5 °C 29.75in /  1007.3hPa Calm     33% 0.00in /  0mm 434.0 W/m2
10:12 71.2 °F /  21.8 °C 38.3 °F /  3.5 °C 29.75in /  1007.3hPa Calm   3.0mph /  4.8km/h 30% 0.00in /  0mm 490.0 W/m2
10:17 71.4 °F /  21.9 °C 38.3 °F /  3.5 °C 29.75in /  1007.3hPa Calm   1.0mph /  1.6km/h 30% 0.00in /  0mm 420.0 W/m2
10:22 72.1 °F /  22.3 °C 37.2 °F /  2.9 °C 29.75in /  1007.3hPa Calm   2.0mph /  3.2km/h 28% 0.00in /  0mm 494.0 W/m2
10:28 73.0 °F /  22.8 °C 37.0 °F /  2.8 °C 29.75in /  1007.3hPa SW 0.9mph /  1.4km/h 3.0mph /  4.8km/h 27% 0.00in /  0mm 921.0 W/m2
10:33 73.6 °F /  23.1 °C 37.6 °F /  3.1 °C 29.75in /  1007.3hPa Calm   1.0mph /  1.6km/h 27% 0.00in /  0mm 979.0 W/m2
10:38 74.3 °F /  23.5 °C 38.1 °F /  3.4 °C 29.75in /  1007.3hPa North 2.0mph /  3.2km/h 3.0mph /  4.8km/h 27% 0.00in /  0mm 1051.0 W/m2
10:43 75.6 °F /  24.2 °C 38.3 °F /  3.5 °C 29.75in /  1007.3hPa South 0.9mph /  1.4km/h 2.0mph /  3.2km/h 26% 0.00in /  0mm 953.0 W/m2
10:48 76.5 °F /  24.7 °C 37.0 °F /  2.8 °C 29.75in /  1007.3hPa NW 6.0mph /  9.7km/h 6.0mph /  9.7km/h 24% 0.00in /  0mm 842.0 W/m2
10:53 77.2 °F /  25.1 °C 36.5 °F /  2.5 °C 29.74in /  1007hPa NW 2.9mph /  4.7km/h 6.0mph /  9.7km/h 23% 0.00in /  0mm 624.0 W/m2
10:58 77.5 °F /  25.3 °C 37.9 °F /  3.3 °C 29.74in /  1007hPa WSW 2.0mph /  3.2km/h 6.0mph /  9.7km/h 24% 0.00in /  0mm 807.0 W/m2
11:04 77.5 °F /  25.3 °C 36.9 °F /  2.7 °C 29.73in /  1006.7hPa Calm   4.0mph /  6.4km/h 23% 0.00in /  0mm 986.0 W/m2
11:09 77.9 °F /  25.5 °C 37.0 °F /  2.8 °C 29.74in /  1007hPa NW 4.0mph /  6.4km/h 5.0mph /  8km/h 23% 0.00in /  0mm 1007.0 W/m2
11:15 78.8 °F /  26 °C 36.7 °F /  2.6 °C 29.73in /  1006.7hPa Calm   6.0mph /  9.7km/h 22% 0.00in /  0mm 1011.0 W/m2
11:20 79.3 °F /  26.3 °C 37.2 °F /  2.9 °C 29.73in /  1006.7hPa West 4.9mph /  7.9km/h 6.0mph /  9.7km/h 22% 0.00in /  0mm 1020.0 W/m2
11:25 79.5 °F /  26.4 °C 37.4 °F /  3 °C 29.73in /  1006.7hPa West 2.0mph /  3.2km/h 4.0mph /  6.4km/h 22% 0.00in /  0mm 1039.0 W/m2
11:30 80.4 °F /  26.9 °C 38.1 °F /  3.4 °C 29.72in /  1006.3hPa NNW 4.0mph /  6.4km/h 7.0mph /  11.3km/h 22% 0.00in /  0mm 1007.0 W/m2
11:35 81.1 °F /  27.3 °C 38.7 °F /  3.7 °C 29.72in /  1006.3hPa NW 2.0mph /  3.2km/h 5.0mph /  8km/h 22% 0.00in /  0mm 872.0 W/m2
11:40 81.3 °F /  27.4 °C 37.6 °F /  3.1 °C 29.72in /  1006.3hPa Calm   2.0mph /  3.2km/h 21% 0.00in /  0mm 1090.0 W/m2
11:45 81.7 °F /  27.6 °C 37.9 °F /  3.3 °C 29.72in /  1006.3hPa North 6.0mph /  9.7km/h 6.0mph /  9.7km/h 21% 0.00in /  0mm 1174.0 W/m2
11:50 81.9 °F /  27.7 °C 38.1 °F /  3.4 °C 29.72in /  1006.3hPa NW 4.0mph /  6.4km/h 7.0mph /  11.3km/h 21% 0.00in /  0mm 1067.0 W/m2
11:55 82.0 °F /  27.8 °C 38.3 °F /  3.5 °C 29.72in /  1006.3hPa NNE 2.9mph /  4.7km/h 6.0mph /  9.7km/h 21% 0.00in /  0mm 1020.0 W/m2
12:00 82.0 °F /  27.8 °C 38.3 °F /  3.5 °C 29.72in /  1006.3hPa West 2.0mph /  3.2km/h 5.0mph /  8km/h 21% 0.00in /  0mm 860.0 W/m2
12:05 82.0 °F /  27.8 °C 37.0 °F /  2.8 °C 29.72in /  1006.3hPa NNW 4.0mph /  6.4km/h 7.0mph /  11.3km/h 20% 0.00in /  0mm 1141.0 W/m2
12:11 82.2 °F /  27.9 °C 38.5 °F /  3.6 °C 29.71in /  1006hPa West 6.0mph /  9.7km/h 8.0mph /  12.9km/h 21% 0.00in /  0mm 1078.0 W/m2
12:16 82.6 °F /  28.1 °C 38.7 °F /  3.7 °C 29.71in /  1006hPa WSW 2.9mph /  4.7km/h 7.0mph /  11.3km/h 21% 0.00in /  0mm 1104.0 W/m2
12:21 81.9 °F /  27.7 °C 38.1 °F /  3.4 °C 29.70in /  1005.6hPa North 2.9mph /  4.7km/h 9.0mph /  14.5km/h 21% 0.00in /  0mm 1121.0 W/m2
12:26 82.4 °F /  28 °C 38.5 °F /  3.6 °C 29.70in /  1005.6hPa North 4.9mph /  7.9km/h 6.0mph /  9.7km/h 21% 0.00in /  0mm 1093.0 W/m2
12:31 82.9 °F /  28.3 °C 37.8 °F /  3.2 °C 29.69in /  1005.3hPa NNE 6.9mph /  11.1km/h 7.0mph /  11.3km/h 20% 0.00in /  0mm 977.0 W/m2
12:36 83.1 °F /  28.4 °C 37.9 °F /  3.3 °C 29.69in /  1005.3hPa NNE 2.0mph /  3.2km/h 4.0mph /  6.4km/h 20% 0.00in /  0mm 1178.0 W/m2
12:42 83.5 °F /  28.6 °C 36.9 °F /  2.7 °C 29.69in /  1005.3hPa NNW 2.0mph /  3.2km/h 10.0mph /  16.1km/h 19% 0.00in /  0mm 1116.0 W/m2
12:47 83.8 °F /  28.8 °C 37.2 °F /  2.9 °C 29.69in /  1005.3hPa NE 2.0mph /  3.2km/h 8.0mph /  12.9km/h 19% 0.00in /  0mm 886.0 W/m2
12:53 84.0 °F /  28.9 °C 38.7 °F /  3.7 °C 29.68in /  1005hPa NNW 4.0mph /  6.4km/h 9.0mph /  14.5km/h 20% 0.00in /  0mm 1062.0 W/m2
12:58 84.4 °F /  29.1 °C 37.6 °F /  3.1 °C 29.68in /  1005hPa NNW 4.0mph /  6.4km/h 5.0mph /  8km/h 19% 0.00in /  0mm 1134.0 W/m2
13:03 84.6 °F /  29.2 °C 37.8 °F /  3.2 °C 29.68in /  1005hPa Calm   5.0mph /  8km/h 19% 0.00in /  0mm 979.0 W/m2
13:08 85.3 °F /  29.6 °C 37.0 °F /  2.8 °C 29.68in /  1005hPa Calm   11.0mph /  17.7km/h 18% 0.00in /  0mm 1181.0 W/m2
13:13 85.8 °F /  29.9 °C 37.4 °F /  3 °C 29.68in /  1005hPa NW 0.9mph /  1.4km/h 4.0mph /  6.4km/h 18% 0.00in /  0mm 1271.0 W/m2
13:19 86.2 °F /  30.1 °C 37.8 °F /  3.2 °C 29.68in /  1005hPa West 4.9mph /  7.9km/h 5.0mph /  8km/h 18% 0.00in /  0mm 1211.0 W/m2
13:24 87.1 °F /  30.6 °C 37.0 °F /  2.8 °C 29.67in /  1004.6hPa NNW 6.0mph /  9.7km/h 8.0mph /  12.9km/h 17% 0.00in /  0mm 1216.0 W/m2
13:29 87.4 °F /  30.8 °C 37.2 °F /  2.9 °C 29.67in /  1004.6hPa North 4.0mph /  6.4km/h 7.0mph /  11.3km/h 17% 0.00in /  0mm 1218.0 W/m2
13:35 87.6 °F /  30.9 °C 37.4 °F /  3 °C 29.67in /  1004.6hPa WNW 2.9mph /  4.7km/h 9.0mph /  14.5km/h 17% 0.00in /  0mm 1234.0 W/m2
13:40 87.4 °F /  30.8 °C 37.2 °F /  2.9 °C 29.67in /  1004.6hPa WSW 6.9mph /  11.1km/h 8.0mph /  12.9km/h 17% 0.00in /  0mm 626.0 W/m2
13:45 87.3 °F /  30.7 °C 37.2 °F /  2.9 °C 29.67in /  1004.6hPa NNW 4.0mph /  6.4km/h 5.0mph /  8km/h 17% 0.00in /  0mm 1199.0 W/m2
13:50 87.3 °F /  30.7 °C 37.2 °F /  2.9 °C 29.67in /  1004.6hPa WNW 2.0mph /  3.2km/h 11.0mph /  17.7km/h 17% 0.00in /  0mm 1116.0 W/m2
13:55 86.9 °F /  30.5 °C 36.9 °F /  2.7 °C 29.66in /  1004.3hPa North 4.0mph /  6.4km/h 9.0mph /  14.5km/h 17% 0.00in /  0mm 1063.0 W/m2
14:00 86.9 °F /  30.5 °C 36.9 °F /  2.7 °C 29.65in /  1003.9hPa NE 4.0mph /  6.4km/h 7.0mph /  11.3km/h 17% 0.00in /  0mm 1109.0 W/m2
14:05 86.7 °F /  30.4 °C 36.7 °F /  2.6 °C 29.65in /  1003.9hPa NW 6.0mph /  9.7km/h 8.0mph /  12.9km/h 17% 0.00in /  0mm 1048.0 W/m2
14:10 86.7 °F /  30.4 °C 36.7 °F /  2.6 °C 29.65in /  1003.9hPa WNW 4.0mph /  6.4km/h 8.0mph /  12.9km/h 17% 0.00in /  0mm 1014.0 W/m2
14:15 87.1 °F /  30.6 °C 37.0 °F /  2.8 °C 29.65in /  1003.9hPa NNW 0.9mph /  1.4km/h 9.0mph /  14.5km/h 17% 0.00in /  0mm 970.0 W/m2
14:21 87.3 °F /  30.7 °C 37.2 °F /  2.9 °C 29.64in /  1003.6hPa WNW 4.9mph /  7.9km/h 8.0mph /  12.9km/h 17% 0.00in /  0mm 1041.0 W/m2
14:26 87.6 °F /  30.9 °C 36.0 °F /  2.2 °C 29.64in /  1003.6hPa ESE 4.0mph /  6.4km/h 7.0mph /  11.3km/h 16% 0.00in /  0mm 940.0 W/m2
14:31 87.6 °F /  30.9 °C 36.0 °F /  2.2 °C 29.64in /  1003.6hPa NNE 6.0mph /  9.7km/h 11.0mph /  17.7km/h 16% 0.00in /  0mm 1007.0 W/m2
14:36 87.3 °F /  30.7 °C 35.6 °F /  2 °C 29.64in /  1003.6hPa North 6.0mph /  9.7km/h 6.0mph /  9.7km/h 16% 0.00in /  0mm 967.0 W/m2
14:41 87.4 °F /  30.8 °C 37.2 °F /  2.9 °C 29.63in /  1003.3hPa WSW 0.9mph /  1.4km/h 5.0mph /  8km/h 17% 0.00in /  0mm 1011.0 W/m2
14:46 87.6 °F /  30.9 °C 37.4 °F /  3 °C 29.63in /  1003.3hPa North 4.0mph /  6.4km/h 10.0mph /  16.1km/h 17% 0.00in /  0mm 230.0 W/m2
14:51 87.1 °F /  30.6 °C 38.5 °F /  3.6 °C 29.63in /  1003.3hPa NNW 2.0mph /  3.2km/h 7.0mph /  11.3km/h 18% 0.00in /  0mm 239.0 W/m2
14:56 86.2 °F /  30.1 °C 39.0 °F /  3.9 °C 29.63in /  1003.3hPa North 4.0mph /  6.4km/h 10.0mph /  16.1km/h 19% 0.00in /  0mm 251.0 W/m2
15:02 85.5 °F /  29.7 °C 37.0 °F /  2.8 °C 29.62in /  1002.9hPa Calm   8.0mph /  12.9km/h 18% 0.00in /  0mm 1005.0 W/m2
15:08 86.2 °F /  30.1 °C 37.8 °F /  3.2 °C 29.63in /  1003.3hPa West 2.0mph /  3.2km/h 7.0mph /  11.3km/h 18% 0.00in /  0mm 255.0 W/m2
15:13 85.8 °F /  29.9 °C 37.4 °F /  3 °C 29.62in /  1002.9hPa NNE 2.9mph /  4.7km/h 7.0mph /  11.3km/h 18% 0.00in /  0mm 234.0 W/m2
15:18 84.9 °F /  29.4 °C 38.1 °F /  3.4 °C 29.62in /  1002.9hPa NNW 2.9mph /  4.7km/h 6.0mph /  9.7km/h 19% 0.00in /  0mm 234.0 W/m2
15:23 84.4 °F /  29.1 °C 37.6 °F /  3.1 °C 29.62in /  1002.9hPa Calm   4.0mph /  6.4km/h 19% 0.00in /  0mm 213.0 W/m2
15:28 84.0 °F /  28.9 °C 37.4 °F /  3 °C 29.62in /  1002.9hPa NNW 6.0mph /  9.7km/h 10.0mph /  16.1km/h 19% 0.00in /  0mm 214.0 W/m2
15:33 83.7 °F /  28.7 °C 37.0 °F /  2.8 °C 29.61in /  1002.6hPa North 4.9mph /  7.9km/h 9.0mph /  14.5km/h 19% 0.00in /  0mm 236.0 W/m2
15:38 83.1 °F /  28.4 °C 36.7 °F /  2.6 °C 29.61in /  1002.6hPa North 6.0mph /  9.7km/h 9.0mph /  14.5km/h 19% 0.00in /  0mm 253.0 W/m2
15:43 82.8 °F /  28.2 °C 36.3 °F /  2.4 °C 29.61in /  1002.6hPa NNW 4.9mph /  7.9km/h 11.0mph /  17.7km/h 19% 0.00in /  0mm 264.0 W/m2
15:48 82.8 °F /  28.2 °C 36.3 °F /  2.4 °C 29.61in /  1002.6hPa Calm   9.0mph /  14.5km/h 19% 0.00in /  0mm 306.0 W/m2
15:53 83.1 °F /  28.4 °C 37.9 °F /  3.3 °C 29.61in /  1002.6hPa West 2.9mph /  4.7km/h 9.0mph /  14.5km/h 20% 0.00in /  0mm 422.0 W/m2
15:58 83.7 °F /  28.7 °C 37.0 °F /  2.8 °C 29.61in /  1002.6hPa WSW 4.0mph /  6.4km/h 6.0mph /  9.7km/h 19% 0.00in /  0mm 575.0 W/m2
16:04 83.8 °F /  28.8 °C 37.2 °F /  2.9 °C 29.61in /  1002.6hPa Calm   8.0mph /  12.9km/h 19% 0.00in /  0mm 476.0 W/m2
16:10 84.4 °F /  29.1 °C 36.3 °F /  2.4 °C 29.62in /  1002.9hPa West 0.9mph /  1.4km/h 6.0mph /  9.7km/h 18% 0.00in /  0mm 364.0 W/m2
16:15 84.6 °F /  29.2 °C 36.3 °F /  2.4 °C 29.61in /  1002.6hPa Calm   4.0mph /  6.4km/h 18% 0.00in /  0mm 304.0 W/m2
16:20 84.2 °F /  29 °C 37.4 °F /  3 °C 29.61in /  1002.6hPa NNW 2.0mph /  3.2km/h 12.0mph /  19.3km/h 19% 0.00in /  0mm 232.0 W/m2
16:25 83.7 °F /  28.7 °C 37.0 °F /  2.8 °C 29.62in /  1002.9hPa NW 6.0mph /  9.7km/h 13.0mph /  20.9km/h 19% 0.00in /  0mm 211.0 W/m2
16:30 83.1 °F /  28.4 °C 36.7 °F /  2.6 °C 29.62in /  1002.9hPa NW 4.0mph /  6.4km/h 8.0mph /  12.9km/h 19% 0.00in /  0mm 202.0 W/m2
16:35 82.8 °F /  28.2 °C 37.6 °F /  3.1 °C 29.62in /  1002.9hPa NNW 6.0mph /  9.7km/h 9.0mph /  14.5km/h 20% 0.00in /  0mm 192.0 W/m2
16:40 82.2 °F /  27.9 °C 37.2 °F /  2.9 °C 29.62in /  1002.9hPa NNW 6.9mph /  11.1km/h 12.0mph /  19.3km/h 20% 0.00in /  0mm 190.0 W/m2
16:45 82.0 °F /  27.8 °C 38.3 °F /  3.5 °C 29.62in /  1002.9hPa NW 2.0mph /  3.2km/h 6.0mph /  9.7km/h 21% 0.00in /  0mm 185.0 W/m2
16:50 82.0 °F /  27.8 °C 38.3 °F /  3.5 °C 29.62in /  1002.9hPa WNW 2.0mph /  3.2km/h 7.0mph /  11.3km/h 21% 0.00in /  0mm 171.0 W/m2
16:55 81.9 °F /  27.7 °C 38.1 °F /  3.4 °C 29.62in /  1002.9hPa NNW 4.9mph /  7.9km/h 9.0mph /  14.5km/h 21% 0.00in /  0mm 153.0 W/m2
17:00 81.7 °F /  27.6 °C 39.2 °F /  4 °C 29.62in /  1002.9hPa NNW 6.0mph /  9.7km/h 7.0mph /  11.3km/h 22% 0.00in /  0mm 127.0 W/m2
17:05 81.3 °F /  27.4 °C 38.8 °F /  3.8 °C 29.62in /  1002.9hPa West 2.0mph /  3.2km/h 8.0mph /  12.9km/h 22% 0.00in /  0mm 105.0 W/m2
17:11 81.0 °F /  27.2 °C 38.5 °F /  3.6 °C 29.62in /  1002.9hPa NNW 4.9mph /  7.9km/h 9.0mph /  14.5km/h 22% 0.00in /  0mm 72.0 W/m2
17:16 80.6 °F /  27 °C 38.3 °F /  3.5 °C 29.62in /  1002.9hPa WNW 4.9mph /  7.9km/h 9.0mph /  14.5km/h 22% 0.00in /  0mm 54.0 W/m2
17:21 80.2 °F /  26.8 °C 39.0 °F /  3.9 °C 29.62in /  1002.9hPa West 2.9mph /  4.7km/h 7.0mph /  11.3km/h 23% 0.00in /  0mm 46.0 W/m2
17:26 80.1 °F /  26.7 °C 38.8 °F /  3.8 °C 29.63in /  1003.3hPa Calm   5.0mph /  8km/h 23% 0.00in /  0mm 49.0 W/m2
17:32 79.9 °F /  26.6 °C 38.8 °F /  3.8 °C 29.63in /  1003.3hPa Calm   1.0mph /  1.6km/h 23% 0.00in /  0mm 54.0 W/m2
17:37 79.3 °F /  26.3 °C 40.5 °F /  4.7 °C 29.63in /  1003.3hPa SSW 2.0mph /  3.2km/h 4.0mph /  6.4km/h 25% 0.00in /  0mm 56.0 W/m2
17:43 78.6 °F /  25.9 °C 40.8 °F /  4.9 °C 29.63in /  1003.3hPa Calm   1.0mph /  1.6km/h 26% 0.00in /  0mm 56.0 W/m2
17:48 78.3 °F /  25.7 °C 41.5 °F /  5.3 °C 29.63in /  1003.3hPa Calm   2.0mph /  3.2km/h 27% 0.00in /  0mm 46.0 W/m2
17:53 78.1 °F /  25.6 °C 41.4 °F /  5.2 °C 29.63in /  1003.3hPa Calm   2.0mph /  3.2km/h 27% 0.00in /  0mm 32.0 W/m2
17:58 77.7 °F /  25.4 °C 40.1 °F /  4.5 °C 29.63in /  1003.3hPa NNW 0.9mph /  1.4km/h 2.0mph /  3.2km/h 26% 0.00in /  0mm 26.0 W/m2
18:04 77.5 °F /  25.3 °C 41.0 °F /  5 °C 29.63in /  1003.3hPa SE 2.9mph /  4.7km/h 5.0mph /  8km/h 27% 0.00in /  0mm 23.0 W/m2
18:09 77.2 °F /  25.1 °C 41.5 °F /  5.3 °C 29.64in /  1003.6hPa Calm   7.0mph /  11.3km/h 28% 0.00in /  0mm 18.0 W/m2
18:14 77.0 °F /  25 °C 41.4 °F /  5.2 °C 29.64in /  1003.6hPa SSW 2.0mph /  3.2km/h 10.0mph /  16.1km/h 28% 0.00in /  0mm 11.0 W/m2
18:20 75.7 °F /  24.3 °C 42.1 °F /  5.6 °C 29.64in /  1003.6hPa West 6.9mph /  11.1km/h 12.0mph /  19.3km/h 30% 0.00in /  0mm 7.0 W/m2
18:25 74.8 °F /  23.8 °C 41.4 °F /  5.2 °C 29.64in /  1003.6hPa SSW 2.0mph /  3.2km/h 9.0mph /  14.5km/h 30% 0.00in /  0mm 5.0 W/m2
18:30 74.8 °F /  23.8 °C 41.4 °F /  5.2 °C 29.64in /  1003.6hPa SW 4.9mph /  7.9km/h 9.0mph /  14.5km/h 30% 0.00in /  0mm 5.0 W/m2
18:36 75.0 °F /  23.9 °C 43.2 °F /  6.2 °C 29.64in /  1003.6hPa South 8.1mph /  13km/h 10.0mph /  16.1km/h 32% 0.00in /  0mm 5.0 W/m2
18:41 74.7 °F /  23.7 °C 48.0 °F /  8.9 °C 29.64in /  1003.6hPa WSW 0.9mph /  1.4km/h 3.0mph /  4.8km/h 39% 0.00in /  0mm 5.0 W/m2
18:46 74.3 °F /  23.5 °C 46.4 °F /  8 °C 29.64in /  1003.6hPa SW 0.9mph /  1.4km/h 2.0mph /  3.2km/h 37% 0.00in /  0mm 0.0 W/m2
18:51 73.9 °F /  23.3 °C 45.3 °F /  7.4 °C 29.65in /  1003.9hPa ENE 2.9mph /  4.7km/h 11.0mph /  17.7km/h 36% 0.00in /  0mm 0.0 W/m2
18:56 73.8 °F /  23.2 °C 44.4 °F /  6.9 °C 29.65in /  1003.9hPa SSW 2.0mph /  3.2km/h 3.0mph /  4.8km/h 35% 0.00in /  0mm 0.0 W/m2
19:02 73.8 °F /  23.2 °C 43.7 °F /  6.5 °C 29.66in /  1004.3hPa SW 4.9mph /  7.9km/h 7.0mph /  11.3km/h 34% 0.00in /  0mm 0.0 W/m2
19:07 73.0 °F /  22.8 °C 46.6 °F /  8.1 °C 29.67in /  1004.6hPa SW 6.9mph /  11.1km/h 14.0mph /  22.5km/h 39% 0.00in /  0mm 0.0 W/m2
19:12 71.4 °F /  21.9 °C 47.1 °F /  8.4 °C 29.68in /  1005hPa SSW 11.0mph /  17.7km/h 11.0mph /  17.7km/h 42% 0.00in /  0mm 0.0 W/m2
19:19 70.2 °F /  21.2 °C 46.0 °F /  7.8 °C 29.69in /  1005.3hPa SSW 6.0mph /  9.7km/h 16.0mph /  25.7km/h 42% 0.00in /  0mm 0.0 W/m2
19:24 69.4 °F /  20.8 °C 48.4 °F /  9.1 °C 29.69in /  1005.3hPa SSE 2.9mph /  4.7km/h 11.0mph /  17.7km/h 47% 0.00in /  0mm 0.0 W/m2
19:29 68.9 °F /  20.5 °C 49.5 °F /  9.7 °C 29.69in /  1005.3hPa WSW 4.9mph /  7.9km/h 8.0mph /  12.9km/h 50% 0.00in /  0mm 0.0 W/m2
19:34 68.2 °F /  20.1 °C 47.7 °F /  8.7 °C 29.70in /  1005.6hPa WSW 4.9mph /  7.9km/h 12.0mph /  19.3km/h 48% 0.00in /  0mm 0.0 W/m2
19:39 67.6 °F /  19.8 °C 47.8 °F /  8.8 °C 29.70in /  1005.6hPa SW 4.9mph /  7.9km/h 11.0mph /  17.7km/h 49% 0.00in /  0mm 0.0 W/m2
19:44 67.3 °F /  19.6 °C 47.5 °F /  8.6 °C 29.70in /  1005.6hPa WSW 4.9mph /  7.9km/h 12.0mph /  19.3km/h 49% 0.00in /  0mm 0.0 W/m2
19:49 67.3 °F /  19.6 °C 46.9 °F /  8.3 °C 29.70in /  1005.6hPa Calm   7.0mph /  11.3km/h 48% 0.00in /  0mm 0.0 W/m2
19:54 67.5 °F /  19.7 °C 47.1 °F /  8.4 °C 29.71in /  1006hPa South 0.9mph /  1.4km/h 4.0mph /  6.4km/h 48% 0.00in /  0mm 0.0 W/m2
19:59 67.5 °F /  19.7 °C 47.1 °F /  8.4 °C 29.71in /  1006hPa SSE 0.9mph /  1.4km/h 2.0mph /  3.2km/h 48% 0.00in /  0mm 0.0 W/m2
20:04 67.3 °F /  19.6 °C 46.9 °F /  8.3 °C 29.71in /  1006hPa Calm   2.0mph /  3.2km/h 48% 0.00in /  0mm 0.0 W/m2
20:09 67.5 °F /  19.7 °C 46.6 °F /  8.1 °C 29.71in /  1006hPa SSE 0.9mph /  1.4km/h 6.0mph /  9.7km/h 47% 0.00in /  0mm 0.0 W/m2
20:15 67.5 °F /  19.7 °C 45.3 °F /  7.4 °C 29.71in /  1006hPa SW 0.9mph /  1.4km/h 13.0mph /  20.9km/h 45% 0.00in /  0mm 0.0 W/m2
20:20 67.5 °F /  19.7 °C 44.8 °F /  7.1 °C 29.71in /  1006hPa South 6.0mph /  9.7km/h 12.0mph /  19.3km/h 44% 0.00in /  0mm 0.0 W/m2
20:25 67.5 °F /  19.7 °C 44.8 °F /  7.1 °C 29.70in /  1005.6hPa East 0.9mph /  1.4km/h 10.0mph /  16.1km/h 44% 0.00in /  0mm 0.0 W/m2
20:31 67.6 °F /  19.8 °C 45.0 °F /  7.2 °C 29.69in /  1005.3hPa South 4.9mph /  7.9km/h 12.0mph /  19.3km/h 44% 0.00in /  0mm 0.0 W/m2
20:36 67.6 °F /  19.8 °C 44.4 °F /  6.9 °C 29.69in /  1005.3hPa SSE 6.0mph /  9.7km/h 8.0mph /  12.9km/h 43% 0.00in /  0mm 0.0 W/m2
20:41 67.6 °F /  19.8 °C 44.4 °F /  6.9 °C 29.69in /  1005.3hPa ESE 2.0mph /  3.2km/h 7.0mph /  11.3km/h 43% 0.00in /  0mm 0.0 W/m2
20:47 67.6 °F /  19.8 °C 43.7 °F /  6.5 °C 29.68in /  1005hPa SSE 0.9mph /  1.4km/h 7.0mph /  11.3km/h 42% 0.00in /  0mm 0.0 W/m2
20:52 67.6 °F /  19.8 °C 43.7 °F /  6.5 °C 29.68in /  1005hPa Calm   7.0mph /  11.3km/h 42% 0.00in /  0mm 0.0 W/m2
20:57 67.6 °F /  19.8 °C 43.7 °F /  6.5 °C 29.68in /  1005hPa SSE 2.9mph /  4.7km/h 6.0mph /  9.7km/h 42% 0.00in /  0mm 0.0 W/m2
21:02 67.6 °F /  19.8 °C 43.7 °F /  6.5 °C 29.68in /  1005hPa SE 0.9mph /  1.4km/h 5.0mph /  8km/h 42% 0.00in /  0mm 0.0 W/m2
21:07 67.6 °F /  19.8 °C 43.7 °F /  6.5 °C 29.68in /  1005hPa SSE 0.9mph /  1.4km/h 3.0mph /  4.8km/h 42% 0.00in /  0mm 0.0 W/m2
21:13 67.8 °F /  19.9 °C 43.9 °F /  6.6 °C 29.68in /  1005hPa Calm   2.0mph /  3.2km/h 42% 0.00in /  0mm 0.0 W/m2
21:18 67.6 °F /  19.8 °C 43.7 °F /  6.5 °C 29.68in /  1005hPa Calm   1.0mph /  1.6km/h 42% 0.00in /  0mm 0.0 W/m2
21:23 67.6 °F /  19.8 °C 44.4 °F /  6.9 °C 29.68in /  1005hPa Calm   2.0mph /  3.2km/h 43% 0.00in /  0mm 0.0 W/m2
21:29 67.6 °F /  19.8 °C 43.2 °F /  6.2 °C 29.68in /  1005hPa Calm     41% 0.00in /  0mm 0.0 W/m2
21:34 67.6 °F /  19.8 °C 43.2 °F /  6.2 °C 29.69in /  1005.3hPa Calm     41% 0.00in /  0mm 0.0 W/m2
21:39 67.6 °F /  19.8 °C 44.4 °F /  6.9 °C 29.70in /  1005.6hPa Calm   2.0mph /  3.2km/h 43% 0.00in /  0mm 0.0 W/m2
21:45 67.5 °F /  19.7 °C 43.5 °F /  6.4 °C 29.70in /  1005.6hPa NE 2.9mph /  4.7km/h 5.0mph /  8km/h 42% 0.00in /  0mm 0.0 W/m2
21:50 67.5 °F /  19.7 °C 43.0 °F /  6.1 °C 29.70in /  1005.6hPa North 2.9mph /  4.7km/h 6.0mph /  9.7km/h 41% 0.00in /  0mm 0.0 W/m2
21:55 67.5 °F /  19.7 °C 42.3 °F /  5.7 °C 29.71in /  1006hPa NNE 4.9mph /  7.9km/h 5.0mph /  8km/h 40% 0.00in /  0mm 0.0 W/m2
22:00 67.6 °F /  19.8 °C 43.2 °F /  6.2 °C 29.71in /  1006hPa NE 2.0mph /  3.2km/h 6.0mph /  9.7km/h 41% 0.00in /  0mm 0.0 W/m2
22:05 67.6 °F /  19.8 °C 42.4 °F /  5.8 °C 29.72in /  1006.3hPa Calm   4.0mph /  6.4km/h 40% 0.00in /  0mm 0.0 W/m2
22:10 67.6 °F /  19.8 °C 43.7 °F /  6.5 °C 29.72in /  1006.3hPa Calm     42% 0.00in /  0mm 0.0 W/m2
22:15 67.5 °F /  19.7 °C 43.5 °F /  6.4 °C 29.72in /  1006.3hPa Calm     42% 0.00in /  0mm 0.0 W/m2
22:20 67.3 °F /  19.6 °C 44.1 °F /  6.7 °C 29.73in /  1006.7hPa Calm     43% 0.00in /  0mm 0.0 W/m2
22:25 66.9 °F /  19.4 °C 43.7 °F /  6.5 °C 29.73in /  1006.7hPa Calm     43% 0.00in /  0mm 0.0 W/m2
22:30 66.7 °F /  19.3 °C 44.1 °F /  6.7 °C 29.73in /  1006.7hPa Calm     44% 0.00in /  0mm 0.0 W/m2
22:35 66.4 °F /  19.1 °C 43.9 °F /  6.6 °C 29.73in /  1006.7hPa Calm     44% 0.00in /  0mm 0.0 W/m2
22:40 65.8 °F /  18.8 °C 43.9 °F /  6.6 °C 29.73in /  1006.7hPa Calm     45% 0.00in /  0mm 0.0 W/m2
22:45 65.7 °F /  18.7 °C 43.7 °F /  6.5 °C 29.73in /  1006.7hPa Calm     45% 0.00in /  0mm 0.0 W/m2
22:51 65.3 °F /  18.5 °C 44.1 °F /  6.7 °C 29.74in /  1007hPa Calm     46% 0.00in /  0mm 0.0 W/m2
22:56 65.1 °F /  18.4 °C 44.4 °F /  6.9 °C 29.74in /  1007hPa SSE 0.9mph /  1.4km/h 2.0mph /  3.2km/h 47% 0.00in /  0mm 0.0 W/m2
23:01 64.9 °F /  18.3 °C 44.2 °F /  6.8 °C 29.74in /  1007hPa Calm     47% 0.00in /  0mm 0.0 W/m2
23:06 64.6 °F /  18.1 °C 44.4 °F /  6.9 °C 29.74in /  1007hPa Calm     48% 0.00in /  0mm 0.0 W/m2
23:11 64.4 °F /  18 °C 43.7 °F /  6.5 °C 29.74in /  1007hPa Calm   1.0mph /  1.6km/h 47% 0.00in /  0mm 0.0 W/m2
23:17 64.2 °F /  17.9 °C 43.5 °F /  6.4 °C 29.74in /  1007hPa Calm   1.0mph /  1.6km/h 47% 0.00in /  0mm 0.0 W/m2
23:23 64.0 °F /  17.8 °C 43.9 °F /  6.6 °C 29.75in /  1007.3hPa Calm     48% 0.00in /  0mm 0.0 W/m2
23:28 63.9 °F /  17.7 °C 43.7 °F /  6.5 °C 29.75in /  1007.3hPa Calm     48% 0.00in /  0mm 0.0 W/m2
23:33 63.7 °F /  17.6 °C 44.2 °F /  6.8 °C 29.75in /  1007.3hPa Calm     49% 0.00in /  0mm 0.0 W/m2
23:38 63.3 °F /  17.4 °C 43.9 °F /  6.6 °C 29.75in /  1007.3hPa Calm     49% 0.00in /  0mm 0.0 W/m2
23:43 63.0 °F /  17.2 °C 44.1 °F /  6.7 °C 29.74in /  1007hPa Calm   3.0mph /  4.8km/h 50% 0.00in /  0mm 0.0 W/m2
23:48 63.0 °F /  17.2 °C 44.1 °F /  6.7 °C 29.74in /  1007hPa SSE 2.0mph /  3.2km/h 3.0mph /  4.8km/h 50% 0.00in /  0mm 0.0 W/m2
23:53 62.8 °F /  17.1 °C 43.3 °F /  6.3 °C 29.75in /  1007.3hPa SE 0.9mph /  1.4km/h 2.0mph /  3.2km/h 49% 0.00in /  0mm 0.0 W/m2
23:58 62.8 °F /  17.1 °C 43.9 °F /  6.6 °C 29.74in /  1007hPa Calm   2.0mph /  3.2km/h 50% 0.00in /  0mm 0.0 W/m2
Olympia, Windhoek, Namibia
Compliments of Weather Underground - 3.25 mb